Time;durP1;ratioP1;P1;durP2;ratioP2;P2;SDS_P1;SDS_P2;PMS_P1;PMS_P2;Temp;Humidity;BMP_temperature;BMP_pressure;BME280_temperature;BME280_humidity;BME280_pressure;Samples;Min_cycle;Max_cycle;Signal;HPM_P1;HPM_P2
2023/07/29 00:00:37;;;;;;;;;;;18.90;99.90;;;;;;5113057;28;19912;-43
2023/07/29 00:03:03;;;;;;;;;;;18.80;99.90;;;;;;5111722;28;19916;-45
2023/07/29 00:05:28;;;;;;;;;;;18.80;99.90;;;;;;5112992;28;20350;-44
2023/07/29 00:07:53;;;;;;;;;;;18.80;99.90;;;;;;5114007;28;19911;-45
2023/07/29 00:10:19;;;;;;;;;;;18.80;99.90;;;;;;5131251;27;19918;-43
2023/07/29 00:12:44;;;;;;;;;;;18.70;99.90;;;;;;5137505;27;19918;-44
2023/07/29 00:15:11;;;;;;;;;;;18.70;99.90;;;;;;5137591;27;19915;-44
2023/07/29 00:17:36;;;;;;;;;;;18.70;99.90;;;;;;5134524;27;19908;-44
2023/07/29 00:20:03;;;;;;;;;;;18.70;99.90;;;;;;5137086;27;19918;-47
2023/07/29 00:22:28;;;;;;;;;;;18.60;99.90;;;;;;5137371;27;19916;-43
2023/07/29 00:25:00;;;;;;;;;;;18.60;99.90;;;;;;5136913;27;20055;-44
2023/07/29 00:27:26;;;;;;;;;;;18.60;99.90;;;;;;5133426;27;20016;-43
2023/07/29 00:29:51;;;;;;;;;;;18.50;99.90;;;;;;5116604;27;20361;-43
2023/07/29 00:32:17;;;;;;;;;;;18.50;99.90;;;;;;5101108;28;20377;-45
2023/07/29 00:34:42;;;;;;;;;;;18.50;99.90;;;;;;5095917;28;19931;-46
2023/07/29 00:37:08;;;;;;;;;;;18.50;99.90;;;;;;5096694;27;19994;-45
2023/07/29 00:39:33;;;;;;;;;;;18.50;99.90;;;;;;5116543;28;19912;-43
2023/07/29 00:41:59;;;;;;;;;;;18.40;99.90;;;;;;5115977;28;19953;-43
2023/07/29 00:44:24;;;;;;;;;;;18.40;99.90;;;;;;5134212;27;19922;-43
2023/07/29 00:46:52;;;;;;;;;;;18.40;99.90;;;;;;5136917;27;19935;-44
2023/07/29 00:49:17;;;;;;;;;;;18.40;99.90;;;;;;5136788;27;19914;-45
2023/07/29 00:51:43;;;;;;;;;;;18.30;99.90;;;;;;5136066;27;20290;-45
2023/07/29 00:54:08;;;;;;;;;;;18.30;99.90;;;;;;5136747;27;19915;-45
2023/07/29 00:56:34;;;;;;;;;;;18.30;99.90;;;;;;5136599;27;19908;-45
2023/07/29 00:59:01;;;;;;;;;;;18.20;99.90;;;;;;5135908;27;19911;-45
2023/07/29 01:01:30;;;;;;;;;;;18.20;99.90;;;;;;5136594;27;20110;-45
2023/07/29 01:03:56;;;;;;;;;;;18.10;99.90;;;;;;5136615;27;19975;-44
2023/07/29 01:06:41;;;;;;;;;;;18.10;99.90;;;;;;5135874;27;20342;-45
2023/07/29 01:09:11;;;;;;;;;;;18.10;99.90;;;;;;5115817;28;19964;-44
2023/07/29 01:11:39;;;;;;;;;;;18.10;99.90;;;;;;5134019;27;20358;-44
2023/07/29 01:14:08;;;;;;;;;;;18.10;99.90;;;;;;5136680;27;19964;-44
2023/07/29 01:16:41;;;;;;;;;;;18.10;99.90;;;;;;5136115;27;20445;-45
2023/07/29 01:19:10;;;;;;;;;;;18.10;99.90;;;;;;5135732;27;19934;-44
2023/07/29 01:21:37;;;;;;;;;;;18.00;99.90;;;;;;5135424;27;20370;-44
2023/07/29 01:24:02;;;;;;;;;;;18.00;99.90;;;;;;5136106;27;19962;-45
2023/07/29 01:26:29;;;;;;;;;;;18.00;99.90;;;;;;5135466;27;19999;-45
2023/07/29 01:28:55;;;;;;;;;;;18.00;99.90;;;;;;5136048;27;19907;-44
2023/07/29 01:31:41;;;;;;;;;;;18.00;99.90;;;;;;5136207;27;20020;-44
2023/07/29 01:34:13;;;;;;;;;;;18.00;99.90;;;;;;5134454;27;19968;-44
2023/07/29 01:36:41;;;;;;;;;;;18.10;99.90;;;;;;5136062;27;19907;-43
2023/07/29 01:39:08;;;;;;;;;;;18.10;99.90;;;;;;5135911;27;19907;-44
2023/07/29 01:41:34;;;;;;;;;;;18.10;99.90;;;;;;5134888;27;19926;-44
2023/07/29 01:44:00;;;;;;;;;;;18.10;99.90;;;;;;5135579;27;19928;-44
2023/07/29 01:46:26;;;;;;;;;;;18.20;99.90;;;;;;5135760;27;19915;-44
2023/07/29 01:48:51;;;;;;;;;;;18.20;99.90;;;;;;5134898;27;20437;-46
2023/07/29 01:51:17;;;;;;;;;;;18.10;99.90;;;;;;5135704;27;20002;-44
2023/07/29 01:53:42;;;;;;;;;;;18.10;99.90;;;;;;5144099;27;19911;-44
2023/07/29 01:56:07;;;;;;;;;;;18.10;99.90;;;;;;5155106;27;19911;-45
2023/07/29 01:58:33;;;;;;;;;;;18.10;99.90;;;;;;5156324;27;20314;-43
2023/07/29 02:00:59;;;;;;;;;;;18.10;99.90;;;;;;5156183;27;19907;-44
2023/07/29 02:03:24;;;;;;;;;;;18.10;99.90;;;;;;5142670;27;19934;-44
2023/07/29 02:05:50;;;;;;;;;;;18.10;99.90;;;;;;5135182;27;19915;-44
2023/07/29 02:08:15;;;;;;;;;;;18.00;99.90;;;;;;5135334;27;20289;-43
2023/07/29 02:10:42;;;;;;;;;;;18.10;99.90;;;;;;5134527;27;19998;-44
2023/07/29 02:13:08;;;;;;;;;;;18.00;99.90;;;;;;5135090;27;19911;-44
2023/07/29 02:15:34;;;;;;;;;;;18.00;99.90;;;;;;5134503;27;20427;-43
2023/07/29 02:18:00;;;;;;;;;;;18.00;99.90;;;;;;5135121;27;19915;-43
2023/07/29 02:20:26;;;;;;;;;;;18.00;99.90;;;;;;5135452;27;19914;-46
2023/07/29 02:22:51;;;;;;;;;;;18.00;99.90;;;;;;5154252;27;20657;-45
2023/07/29 02:25:17;;;;;;;;;;;17.90;99.90;;;;;;5155715;27;19907;-45
2023/07/29 02:27:42;;;;;;;;;;;17.90;99.90;;;;;;5155686;27;19964;-44
2023/07/29 02:30:09;;;;;;;;;;;17.90;99.90;;;;;;5154014;27;19907;-43
2023/07/29 02:32:35;;;;;;;;;;;17.90;99.90;;;;;;5155287;27;19911;-43
2023/07/29 02:35:00;;;;;;;;;;;17.90;99.90;;;;;;5155373;27;19993;-42
2023/07/29 02:37:26;;;;;;;;;;;17.90;99.90;;;;;;5154794;27;19910;-43
2023/07/29 02:39:51;;;;;;;;;;;17.90;99.90;;;;;;5155000;27;19911;-44
2023/07/29 02:42:17;;;;;;;;;;;17.90;99.90;;;;;;5155058;27;19919;-44
2023/07/29 02:44:42;;;;;;;;;;;18.00;99.90;;;;;;5154772;27;19907;-43
2023/07/29 02:47:08;;;;;;;;;;;17.90;99.90;;;;;;5155286;27;19907;-46
2023/07/29 02:49:33;;;;;;;;;;;17.90;99.90;;;;;;5154911;27;19918;-46
2023/07/29 02:51:59;;;;;;;;;;;18.00;99.90;;;;;;5153987;27;20294;-43
2023/07/29 02:54:24;;;;;;;;;;;18.00;99.90;;;;;;5155116;27;19907;-43
2023/07/29 02:56:50;;;;;;;;;;;18.00;99.90;;;;;;5155101;27;19907;-44
2023/07/29 02:59:15;;;;;;;;;;;18.00;99.90;;;;;;5154345;27;19914;-44
2023/07/29 03:01:41;;;;;;;;;;;18.00;99.90;;;;;;5154484;27;20327;-43
2023/07/29 03:04:06;;;;;;;;;;;18.00;99.90;;;;;;5154531;27;19911;-45
2023/07/29 03:06:32;;;;;;;;;;;18.00;99.90;;;;;;5134118;27;19985;-46
2023/07/29 03:08:57;;;;;;;;;;;18.00;99.90;;;;;;5134199;27;19907;-45
2023/07/29 03:11:23;;;;;;;;;;;18.00;99.90;;;;;;5134092;27;19911;-43
2023/07/29 03:13:48;;;;;;;;;;;18.00;99.90;;;;;;5133375;27;19907;-44
2023/07/29 03:16:15;;;;;;;;;;;18.00;99.90;;;;;;5134132;27;20282;-45
2023/07/29 03:18:41;;;;;;;;;;;17.90;99.90;;;;;;5146730;27;19915;-44
2023/07/29 03:21:07;;;;;;;;;;;17.90;99.90;;;;;;5153813;27;19907;-43
2023/07/29 03:23:32;;;;;;;;;;;17.90;99.90;;;;;;5154703;27;19907;-43
2023/07/29 03:25:58;;;;;;;;;;;17.80;99.90;;;;;;5149669;27;20006;-44
2023/07/29 03:28:25;;;;;;;;;;;17.80;99.90;;;;;;5133948;27;19965;-44
2023/07/29 03:30:50;;;;;;;;;;;17.80;99.90;;;;;;5133892;27;19916;-44
2023/07/29 03:33:16;;;;;;;;;;;17.70;99.90;;;;;;5133182;27;19907;-43
2023/07/29 03:35:44;;;;;;;;;;;17.80;99.90;;;;;;5134529;27;20023;-45
2023/07/29 03:38:10;;;;;;;;;;;17.70;99.90;;;;;;5154242;27;19914;-46
2023/07/29 03:40:35;;;;;;;;;;;17.70;99.90;;;;;;5153675;27;19908;-43
2023/07/29 03:43:00;;;;;;;;;;;17.70;99.90;;;;;;5153800;27;20006;-45
2023/07/29 03:45:26;;;;;;;;;;;17.70;99.90;;;;;;5154563;27;20358;-44
2023/07/29 03:47:51;;;;;;;;;;;17.60;99.90;;;;;;5151934;27;19981;-46
2023/07/29 03:50:17;;;;;;;;;;;17.60;99.90;;;;;;5154469;27;19907;-42
2023/07/29 03:52:42;;;;;;;;;;;17.60;99.90;;;;;;5154573;27;20068;-45
2023/07/29 03:55:08;;;;;;;;;;;17.50;99.90;;;;;;5153378;27;19915;-43
2023/07/29 03:57:33;;;;;;;;;;;17.50;99.90;;;;;;5153985;27;19921;-45
2023/07/29 03:59:59;;;;;;;;;;;17.50;99.90;;;;;;5154245;27;20002;-47
2023/07/29 04:02:24;;;;;;;;;;;17.40;99.90;;;;;;5153415;27;19916;-43
2023/07/29 04:04:50;;;;;;;;;;;17.40;99.90;;;;;;5154271;27;19950;-45
2023/07/29 04:07:15;;;;;;;;;;;17.40;99.90;;;;;;5142898;27;19918;-47
2023/07/29 04:09:43;;;;;;;;;;;17.40;99.90;;;;;;5132698;28;19907;-48
2023/07/29 04:12:08;;;;;;;;;;;17.50;99.90;;;;;;5133359;28;19912;-45
2023/07/29 04:14:34;;;;;;;;;;;17.50;99.90;;;;;;5133491;28;19908;-44
2023/07/29 04:16:59;;;;;;;;;;;17.50;99.90;;;;;;5132915;27;19955;-50
2023/07/29 04:19:25;;;;;;;;;;;17.50;99.90;;;;;;5133428;28;19908;-47
2023/07/29 04:21:50;;;;;;;;;;;17.50;99.90;;;;;;5133288;28;19915;-45
2023/07/29 04:24:16;;;;;;;;;;;17.50;99.90;;;;;;5132669;28;19990;-44
2023/07/29 04:26:41;;;;;;;;;;;17.50;99.90;;;;;;5131283;28;19999;-44
2023/07/29 04:29:07;;;;;;;;;;;17.50;99.90;;;;;;5133022;27;19956;-47
2023/07/29 04:31:32;;;;;;;;;;;17.50;99.90;;;;;;5132659;28;19964;-45
2023/07/29 04:33:58;;;;;;;;;;;17.50;99.90;;;;;;5133248;28;19960;-47
2023/07/29 04:36:24;;;;;;;;;;;17.50;99.90;;;;;;5132333;27;19914;-46
2023/07/29 04:38:49;;;;;;;;;;;17.50;99.90;;;;;;5133234;28;19914;-45
2023/07/29 04:41:15;;;;;;;;;;;17.60;99.90;;;;;;5133143;28;19912;-45
2023/07/29 04:43:40;;;;;;;;;;;17.60;99.90;;;;;;5131910;28;20029;-45
2023/07/29 04:46:06;;;;;;;;;;;17.60;99.90;;;;;;5133141;28;20266;-44
2023/07/29 04:48:32;;;;;;;;;;;17.60;99.90;;;;;;5133009;27;19912;-46
2023/07/29 04:50:57;;;;;;;;;;;17.60;99.90;;;;;;5132280;28;19907;-48
2023/07/29 04:53:22;;;;;;;;;;;17.60;99.90;;;;;;5133426;27;19908;-45
2023/07/29 04:55:48;;;;;;;;;;;17.60;99.90;;;;;;5136881;27;19954;-45
2023/07/29 04:58:13;;;;;;;;;;;17.60;99.90;;;;;;5135854;27;20356;-45
2023/07/29 05:00:39;;;;;;;;;;;17.70;99.90;;;;;;5136660;27;19994;-45
2023/07/29 05:03:04;;;;;;;;;;;17.60;99.90;;;;;;5136716;27;19968;-46
2023/07/29 05:05:30;;;;;;;;;;;17.60;99.90;;;;;;5135797;27;19912;-46
2023/07/29 05:07:55;;;;;;;;;;;17.70;99.90;;;;;;5149340;27;19911;-45
2023/07/29 05:10:21;;;;;;;;;;;17.70;99.90;;;;;;5157307;27;19911;-47
2023/07/29 05:12:46;;;;;;;;;;;17.60;99.90;;;;;;5156435;27;19907;-46
2023/07/29 05:15:12;;;;;;;;;;;17.60;99.90;;;;;;5157108;27;19994;-50
2023/07/29 05:17:38;;;;;;;;;;;17.70;99.90;;;;;;5156616;27;19912;-48
2023/07/29 05:20:03;;;;;;;;;;;17.70;99.90;;;;;;5156264;27;19967;-49
2023/07/29 05:22:29;;;;;;;;;;;17.60;99.90;;;;;;5156729;27;20396;-49
2023/07/29 05:24:54;;;;;;;;;;;17.70;99.90;;;;;;5156997;27;19997;-46
2023/07/29 05:27:20;;;;;;;;;;;17.60;99.90;;;;;;5153953;27;19918;-46
2023/07/29 05:29:45;;;;;;;;;;;17.70;99.90;;;;;;5156833;27;20036;-49
2023/07/29 05:32:11;;;;;;;;;;;17.70;99.90;;;;;;5141886;27;19912;-46
2023/07/29 05:34:36;;;;;;;;;;;17.70;99.90;;;;;;5122374;27;19918;-45
2023/07/29 05:37:02;;;;;;;;;;;17.70;99.90;;;;;;5121323;27;20361;-45
2023/07/29 05:39:27;;;;;;;;;;;17.80;99.90;;;;;;5117242;27;19911;-48
2023/07/29 05:41:53;;;;;;;;;;;17.80;99.90;;;;;;5122028;27;19955;-45
2023/07/29 05:44:20;;;;;;;;;;;17.80;99.90;;;;;;5125988;27;19920;-44
2023/07/29 05:46:45;;;;;;;;;;;17.80;99.90;;;;;;5123612;27;20392;-50
2023/07/29 05:49:10;;;;;;;;;;;17.80;99.90;;;;;;5119105;27;20365;-45
2023/07/29 05:51:36;;;;;;;;;;;17.80;99.90;;;;;;5148636;27;19918;-46
2023/07/29 05:54:01;;;;;;;;;;;17.80;99.90;;;;;;5155634;27;19907;-47
2023/07/29 05:56:27;;;;;;;;;;;17.80;99.90;;;;;;5156501;27;19914;-45
2023/07/29 05:58:53;;;;;;;;;;;17.80;99.90;;;;;;5146768;27;20320;-46
2023/07/29 06:01:21;;;;;;;;;;;17.90;99.90;;;;;;5118188;27;20023;-46
2023/07/29 06:03:46;;;;;;;;;;;17.80;99.90;;;;;;5125147;27;19918;-46
2023/07/29 06:06:12;;;;;;;;;;;17.90;99.90;;;;;;5123056;27;19916;-47
2023/07/29 06:08:37;;;;;;;;;;;17.90;99.90;;;;;;5116639;27;19951;-46
2023/07/29 06:11:03;;;;;;;;;;;17.90;99.90;;;;;;5128618;27;19964;-46
2023/07/29 06:13:28;;;;;;;;;;;17.90;99.90;;;;;;5151533;27;19918;-49
2023/07/29 06:15:54;;;;;;;;;;;17.90;99.90;;;;;;5145160;27;19911;-47
2023/07/29 06:18:19;;;;;;;;;;;18.00;99.90;;;;;;5133068;27;20393;-45
2023/07/29 06:20:45;;;;;;;;;;;18.00;99.90;;;;;;5116063;27;19945;-46
2023/07/29 06:23:10;;;;;;;;;;;18.00;99.90;;;;;;5140710;27;19995;-45
2023/07/29 06:25:36;;;;;;;;;;;18.00;99.90;;;;;;5135031;27;20274;-46
2023/07/29 06:28:01;;;;;;;;;;;18.00;99.90;;;;;;5117148;27;19908;-46
2023/07/29 06:30:27;;;;;;;;;;;18.00;99.90;;;;;;5116958;27;20008;-47
2023/07/29 06:32:52;;;;;;;;;;;18.10;99.90;;;;;;5133006;27;19912;-45
2023/07/29 06:35:18;;;;;;;;;;;18.20;99.90;;;;;;5133783;27;20559;-47
2023/07/29 06:37:43;;;;;;;;;;;18.20;99.90;;;;;;5108929;27;20371;-50
2023/07/29 06:40:09;;;;;;;;;;;18.30;99.90;;;;;;5116749;27;19916;-46
2023/07/29 06:42:34;;;;;;;;;;;18.30;99.90;;;;;;5129227;27;20312;-45
2023/07/29 06:45:00;;;;;;;;;;;18.40;99.90;;;;;;5124030;27;19916;-45
2023/07/29 06:47:25;;;;;;;;;;;18.50;99.90;;;;;;5114114;28;20270;-45
2023/07/29 06:49:51;;;;;;;;;;;18.50;99.90;;;;;;5116184;27;19964;-48
2023/07/29 06:52:16;;;;;;;;;;;18.50;99.90;;;;;;5121191;27;20010;-46
2023/07/29 06:54:42;;;;;;;;;;;18.60;99.90;;;;;;5126492;27;19957;-43
2023/07/29 06:57:08;;;;;;;;;;;18.60;99.90;;;;;;5121979;27;19907;-46
2023/07/29 06:59:33;;;;;;;;;;;18.70;99.90;;;;;;5113825;28;19911;-44
2023/07/29 07:01:59;;;;;;;;;;;18.80;99.90;;;;;;5113730;28;20044;-45
2023/07/29 07:04:25;;;;;;;;;;;18.80;99.90;;;;;;5116977;27;19988;-43
2023/07/29 07:06:50;;;;;;;;;;;18.90;99.90;;;;;;5117774;27;20353;-43
2023/07/29 07:09:16;;;;;;;;;;;18.90;99.90;;;;;;5117469;27;19920;-44
2023/07/29 07:11:42;;;;;;;;;;;19.00;99.90;;;;;;5126711;27;19927;-43
2023/07/29 07:14:07;;;;;;;;;;;19.00;99.90;;;;;;5130890;27;19919;-43
2023/07/29 07:16:32;;;;;;;;;;;19.00;99.90;;;;;;5121678;27;20271;-43
2023/07/29 07:18:58;;;;;;;;;;;19.00;99.90;;;;;;5130761;27;19911;-43
2023/07/29 07:21:23;;;;;;;;;;;19.10;99.90;;;;;;5144545;27;19911;-44
2023/07/29 07:23:49;;;;;;;;;;;19.10;99.90;;;;;;5125334;27;19938;-43
2023/07/29 07:26:15;;;;;;;;;;;19.10;99.90;;;;;;5115964;27;19907;-44
2023/07/29 07:28:40;;;;;;;;;;;19.10;99.90;;;;;;5113051;28;20057;-44
2023/07/29 07:31:06;;;;;;;;;;;19.10;99.90;;;;;;5117169;27;19919;-45
2023/07/29 07:33:32;;;;;;;;;;;19.20;99.90;;;;;;5123440;27;19912;-49
2023/07/29 07:35:57;;;;;;;;;;;19.30;99.90;;;;;;5116123;27;19908;-43
2023/07/29 07:38:23;;;;;;;;;;;19.30;99.90;;;;;;5113110;28;19915;-44
2023/07/29 07:40:55;;;;;;;;;;;19.40;99.90;;;;;;5122104;27;19918;-44
2023/07/29 07:43:21;;;;;;;;;;;19.40;99.90;;;;;;5121271;27;19973;-44
2023/07/29 07:45:46;;;;;;;;;;;19.50;99.90;;;;;;5113329;28;19919;-45
2023/07/29 07:48:13;;;;;;;;;;;19.50;99.90;;;;;;5112362;28;20451;-43
2023/07/29 07:50:38;;;;;;;;;;;19.60;99.90;;;;;;5118224;28;19955;-46
2023/07/29 07:53:04;;;;;;;;;;;19.60;99.90;;;;;;5131241;27;19954;-44
2023/07/29 07:55:29;;;;;;;;;;;19.60;99.90;;;;;;5133329;27;20358;-45
2023/07/29 07:57:55;;;;;;;;;;;19.70;99.90;;;;;;5120613;28;19917;-45
2023/07/29 08:00:21;;;;;;;;;;;19.60;99.90;;;;;;5132759;28;19911;-45
2023/07/29 08:02:46;;;;;;;;;;;19.60;99.90;;;;;;5128675;27;19915;-43
2023/07/29 08:05:12;;;;;;;;;;;19.70;99.90;;;;;;5154261;27;19958;-43
2023/07/29 08:07:37;;;;;;;;;;;19.80;99.90;;;;;;5153534;27;20010;-44
2023/07/29 08:10:03;;;;;;;;;;;19.80;99.90;;;;;;5124115;27;19908;-46
2023/07/29 08:12:28;;;;;;;;;;;19.80;99.90;;;;;;5105891;28;19955;-46
2023/07/29 08:14:54;;;;;;;;;;;19.80;99.90;;;;;;5116746;27;19916;-45
2023/07/29 08:17:19;;;;;;;;;;;19.80;99.90;;;;;;5120913;27;20311;-45
2023/07/29 08:19:45;;;;;;;;;;;19.80;99.90;;;;;;5133271;28;19907;-44
2023/07/29 08:22:10;;;;;;;;;;;19.90;99.90;;;;;;5118881;28;19915;-44
2023/07/29 08:24:35;;;;;;;;;;;20.00;99.90;;;;;;5118258;27;19968;-43
2023/07/29 08:27:01;;;;;;;;;;;20.10;99.90;;;;;;5118359;28;19912;-43
2023/07/29 08:29:26;;;;;;;;;;;20.10;99.90;;;;;;5124510;27;19916;-43
2023/07/29 08:31:52;;;;;;;;;;;20.10;99.90;;;;;;5132236;27;19914;-44
2023/07/29 08:34:18;;;;;;;;;;;20.10;99.90;;;;;;5119070;27;19918;-46
2023/07/29 08:36:43;;;;;;;;;;;20.20;99.90;;;;;;5128664;27;19916;-43
2023/07/29 08:39:09;;;;;;;;;;;20.20;99.90;;;;;;5117615;27;20015;-44
2023/07/29 08:41:45;;;;;;;;;;;20.30;99.90;;;;;;5116724;27;19919;-45
2023/07/29 08:44:29;;;;;;;;;;;20.40;99.90;;;;;;5104012;27;20361;-44
2023/07/29 08:46:57;;;;;;;;;;;20.50;99.90;;;;;;5124260;27;19912;-43
2023/07/29 08:49:23;;;;;;;;;;;20.50;99.90;;;;;;5131269;27;19912;-42
2023/07/29 08:51:48;;;;;;;;;;;20.50;99.90;;;;;;5135092;27;20082;-43
2023/07/29 08:54:14;;;;;;;;;;;20.30;99.90;;;;;;5130274;27;20711;-44
2023/07/29 08:56:43;;;;;;;;;;;20.30;99.90;;;;;;5136177;27;19918;-47
2023/07/29 08:59:09;;;;;;;;;;;20.40;99.90;;;;;;5124836;27;19923;-46
2023/07/29 09:01:34;;;;;;;;;;;20.50;99.90;;;;;;5117010;27;19924;-44
2023/07/29 09:04:00;;;;;;;;;;;20.60;99.90;;;;;;5122131;27;19998;-45
2023/07/29 09:06:27;;;;;;;;;;;20.90;99.90;;;;;;5119013;27;20072;-43
2023/07/29 09:08:58;;;;;;;;;;;20.90;99.90;;;;;;5119237;27;19926;-43
2023/07/29 09:11:24;;;;;;;;;;;20.80;99.90;;;;;;5128930;27;19915;-46
2023/07/29 09:13:49;;;;;;;;;;;20.70;99.90;;;;;;5138534;27;19915;-46
2023/07/29 09:16:15;;;;;;;;;;;20.80;99.90;;;;;;5135698;27;20333;-42
2023/07/29 09:18:40;;;;;;;;;;;20.90;99.90;;;;;;5130428;27;19916;-45
2023/07/29 09:21:06;;;;;;;;;;;20.90;99.90;;;;;;5131299;27;19972;-44
2023/07/29 09:23:44;;;;;;;;;;;21.00;99.90;;;;;;5130607;27;19918;-44
2023/07/29 09:26:10;;;;;;;;;;;21.10;99.90;;;;;;5119030;27;19998;-45
2023/07/29 09:28:36;;;;;;;;;;;21.10;99.90;;;;;;5120457;27;19916;-44
2023/07/29 09:31:02;;;;;;;;;;;21.20;99.90;;;;;;5129927;27;19937;-44
2023/07/29 09:33:37;;;;;;;;;;;21.30;99.90;;;;;;5131728;27;20350;-43
2023/07/29 09:36:08;;;;;;;;;;;21.40;99.90;;;;;;5134545;27;20345;-44
2023/07/29 09:38:34;;;;;;;;;;;21.50;99.90;;;;;;5122838;27;19912;-45
2023/07/29 09:40:59;;;;;;;;;;;21.60;99.90;;;;;;5120254;27;19911;-43
2023/07/29 09:43:26;;;;;;;;;;;21.70;99.90;;;;;;5119596;27;19927;-46
2023/07/29 09:45:51;;;;;;;;;;;21.70;99.90;;;;;;5126323;27;19974;-44
2023/07/29 09:48:19;;;;;;;;;;;21.70;99.90;;;;;;5124411;27;20382;-44
2023/07/29 09:50:47;;;;;;;;;;;21.70;99.90;;;;;;5128317;27;20215;-44
2023/07/29 09:53:12;;;;;;;;;;;21.60;99.90;;;;;;5119171;27;19958;-43
2023/07/29 09:55:37;;;;;;;;;;;21.60;99.90;;;;;;5122255;27;19919;-45
2023/07/29 09:58:07;;;;;;;;;;;21.50;99.90;;;;;;5119465;27;19912;-44
2023/07/29 10:00:34;;;;;;;;;;;21.60;99.90;;;;;;5120342;27;20358;-44
2023/07/29 10:02:59;;;;;;;;;;;21.70;99.90;;;;;;5123613;27;19970;-51
2023/07/29 10:05:25;;;;;;;;;;;21.80;99.90;;;;;;5120488;27;20374;-43
2023/07/29 10:07:51;;;;;;;;;;;21.90;99.90;;;;;;5123956;27;20393;-45
2023/07/29 10:10:17;;;;;;;;;;;22.00;99.90;;;;;;5119819;27;19922;-44
2023/07/29 10:12:42;;;;;;;;;;;22.10;99.90;;;;;;5122351;27;19914;-45
2023/07/29 10:15:08;;;;;;;;;;;22.20;99.90;;;;;;5121572;27;20435;-48
2023/07/29 10:17:35;;;;;;;;;;;22.30;99.90;;;;;;5117838;27;19916;-44
2023/07/29 10:20:02;;;;;;;;;;;22.30;99.90;;;;;;5122835;27;19963;-42
2023/07/29 10:22:31;;;;;;;;;;;22.30;99.90;;;;;;5121617;27;20067;-46
2023/07/29 10:25:01;;;;;;;;;;;22.40;99.90;;;;;;5121888;27;19958;-43
2023/07/29 10:27:28;;;;;;;;;;;22.60;99.90;;;;;;5116291;27;20010;-43
2023/07/29 10:29:54;;;;;;;;;;;22.70;99.90;;;;;;5118386;27;20392;-43
2023/07/29 10:32:23;;;;;;;;;;;22.70;99.90;;;;;;5124823;27;19912;-45
2023/07/29 10:34:48;;;;;;;;;;;22.60;99.90;;;;;;5131534;27;19907;-44
2023/07/29 10:37:14;;;;;;;;;;;22.50;99.90;;;;;;5133548;27;19908;-45
2023/07/29 10:39:40;;;;;;;;;;;22.50;99.90;;;;;;5135445;27;20309;-44
2023/07/29 10:42:06;;;;;;;;;;;22.50;99.90;;;;;;5133492;27;19933;-46
2023/07/29 10:44:46;;;;;;;;;;;22.50;99.90;;;;;;5133184;27;19945;-45
2023/07/29 10:47:12;;;;;;;;;;;22.60;99.90;;;;;;5129832;27;19916;-44
2023/07/29 10:49:40;;;;;;;;;;;22.80;99.90;;;;;;5125792;27;19911;-45
2023/07/29 10:52:06;;;;;;;;;;;23.00;99.90;;;;;;5147904;27;19998;-43
2023/07/29 10:54:41;;;;;;;;;;;23.10;99.90;;;;;;5135150;27;19998;-45
2023/07/29 10:57:06;;;;;;;;;;;23.30;99.90;;;;;;5117129;27;19964;-44
2023/07/29 10:59:33;;;;;;;;;;;23.20;99.90;;;;;;5120270;27;19912;-42
2023/07/29 11:01:59;;;;;;;;;;;23.10;99.90;;;;;;5112784;27;19920;-45
2023/07/29 11:04:30;;;;;;;;;;;23.00;99.90;;;;;;5118522;27;19943;-44
2023/07/29 11:07:06;;;;;;;;;;;22.90;99.90;;;;;;5124052;27;19919;-44
2023/07/29 11:09:41;;;;;;;;;;;22.90;99.90;;;;;;5125144;27;19922;-47
2023/07/29 11:12:25;;;;;;;;;;;22.90;99.90;;;;;;5134144;27;19918;-45
2023/07/29 11:14:50;;;;;;;;;;;22.70;99.90;;;;;;5140845;27;19911;-44
2023/07/29 11:17:16;;;;;;;;;;;22.60;99.90;;;;;;5128919;27;19918;-46
2023/07/29 11:19:41;;;;;;;;;;;22.50;99.90;;;;;;5117213;27;20043;-44
2023/07/29 11:22:09;;;;;;;;;;;22.40;99.90;;;;;;5140826;27;19927;-44
2023/07/29 11:24:34;;;;;;;;;;;22.20;99.90;;;;;;5140706;27;20369;-44
2023/07/29 11:27:00;;;;;;;;;;;21.90;99.90;;;;;;5126559;27;19917;-45
2023/07/29 11:29:25;;;;;;;;;;;21.60;99.90;;;;;;5119782;27;19912;-43
2023/07/29 11:31:51;;;;;;;;;;;21.20;99.90;;;;;;5122598;27;19915;-46
2023/07/29 11:34:20;;;;;;;;;;;20.80;99.90;;;;;;5120925;27;19915;-44
2023/07/29 11:36:45;;;;;;;;;;;20.60;99.90;;;;;;5130666;27;19968;-44
2023/07/29 11:39:11;;;;;;;;;;;20.50;99.90;;;;;;5136456;27;19916;-44
2023/07/29 11:41:37;;;;;;;;;;;20.50;99.90;;;;;;5133183;27;19919;-45
2023/07/29 11:44:02;;;;;;;;;;;20.70;99.90;;;;;;5139534;27;20285;-43
2023/07/29 11:46:28;;;;;;;;;;;20.90;99.90;;;;;;5135945;27;19918;-46
2023/07/29 11:48:55;;;;;;;;;;;21.10;99.90;;;;;;5127675;28;20418;-43
2023/07/29 11:51:21;;;;;;;;;;;21.30;99.90;;;;;;5130244;28;20278;-44
2023/07/29 11:53:47;;;;;;;;;;;21.40;99.90;;;;;;5123049;27;19918;-42
2023/07/29 11:56:13;;;;;;;;;;;21.40;99.90;;;;;;5118682;28;20285;-44
2023/07/29 11:58:38;;;;;;;;;;;21.30;99.90;;;;;;5130454;27;19911;-42
2023/07/29 12:01:04;;;;;;;;;;;21.10;99.90;;;;;;5140332;27;19912;-46
2023/07/29 12:03:30;;;;;;;;;;;21.00;99.90;;;;;;5128347;27;20019;-43
2023/07/29 12:05:56;;;;;;;;;;;21.10;99.90;;;;;;5118857;27;19986;-45
2023/07/29 12:08:21;;;;;;;;;;;21.20;99.90;;;;;;5121069;27;19912;-43
2023/07/29 12:10:47;;;;;;;;;;;21.30;99.90;;;;;;5117857;28;19961;-45
2023/07/29 12:13:13;;;;;;;;;;;21.60;99.90;;;;;;5117771;27;19919;-44
2023/07/29 12:15:40;;;;;;;;;;;21.70;99.90;;;;;;5125153;27;19947;-44
2023/07/29 12:18:05;;;;;;;;;;;21.80;99.90;;;;;;5139072;27;20296;-43
2023/07/29 12:20:31;;;;;;;;;;;22.00;99.90;;;;;;5128087;27;20361;-43
2023/07/29 12:22:57;;;;;;;;;;;22.20;99.90;;;;;;5138015;27;19937;-43
2023/07/29 12:25:23;;;;;;;;;;;22.40;99.90;;;;;;5138013;27;19949;-46
2023/07/29 12:27:48;;;;;;;;;;;22.60;99.90;;;;;;5134027;27;19911;-45
2023/07/29 12:30:14;;;;;;;;;;;22.60;99.90;;;;;;5127770;27;19980;-43
2023/07/29 12:32:44;;;;;;;;;;;22.70;99.90;;;;;;5134864;27;19918;-43
2023/07/29 12:35:09;;;;;;;;;;;22.80;99.90;;;;;;5121036;27;19914;-45
2023/07/29 12:37:35;;;;;;;;;;;22.90;99.90;;;;;;5137259;27;19912;-45
2023/07/29 12:40:01;;;;;;;;;;;22.90;99.90;;;;;;5132235;27;20414;-43
2023/07/29 12:42:27;;;;;;;;;;;22.80;99.90;;;;;;5128388;27;20899;-43
2023/07/29 12:44:52;;;;;;;;;;;22.80;99.90;;;;;;5138632;27;20037;-42
2023/07/29 12:47:17;;;;;;;;;;;22.90;99.90;;;;;;5137735;27;19911;-45
2023/07/29 12:49:43;;;;;;;;;;;22.90;99.90;;;;;;5136292;27;20357;-43
2023/07/29 12:52:08;;;;;;;;;;;22.90;99.90;;;;;;5135803;27;19999;-43
2023/07/29 12:54:34;;;;;;;;;;;22.80;99.90;;;;;;5136903;27;19915;-46
2023/07/29 12:56:59;;;;;;;;;;;22.90;99.90;;;;;;5134171;27;19928;-43
2023/07/29 12:59:25;;;;;;;;;;;23.10;99.90;;;;;;5124299;27;19912;-46
2023/07/29 13:01:50;;;;;;;;;;;23.10;99.90;;;;;;5116762;28;19919;-46
2023/07/29 13:04:16;;;;;;;;;;;23.10;99.90;;;;;;5144184;27;19956;-43
2023/07/29 13:06:41;;;;;;;;;;;23.10;99.90;;;;;;5137518;27;20346;-46
2023/07/29 13:09:07;;;;;;;;;;;23.00;99.90;;;;;;5137193;27;19976;-43
2023/07/29 13:11:33;;;;;;;;;;;22.90;99.90;;;;;;5118636;27;19955;-42
2023/07/29 13:14:00;;;;;;;;;;;22.80;99.90;;;;;;5135730;27;19957;-42
2023/07/29 13:16:25;;;;;;;;;;;22.80;99.90;;;;;;5130259;27;20330;-43
2023/07/29 13:18:51;;;;;;;;;;;22.80;99.90;;;;;;5133888;27;20002;-44
2023/07/29 13:21:16;;;;;;;;;;;22.80;99.90;;;;;;5133746;27;20022;-45
2023/07/29 13:23:42;;;;;;;;;;;22.80;99.90;;;;;;5137757;27;19915;-44
2023/07/29 13:26:07;;;;;;;;;;;23.20;99.90;;;;;;5138830;27;20007;-45
2023/07/29 13:28:33;;;;;;;;;;;23.60;99.90;;;;;;5156311;27;19911;-44
2023/07/29 13:30:58;;;;;;;;;;;23.80;99.90;;;;;;5156249;27;20353;-45
2023/07/29 13:33:24;;;;;;;;;;;24.20;99.90;;;;;;5157047;27;19907;-44
2023/07/29 13:35:50;;;;;;;;;;;24.60;99.90;;;;;;5157060;27;19911;-43
2023/07/29 13:38:16;;;;;;;;;;;24.40;99.90;;;;;;5131182;27;20357;-43
2023/07/29 13:40:41;;;;;;;;;;;24.10;99.90;;;;;;5123526;27;19923;-44
2023/07/29 13:43:07;;;;;;;;;;;23.70;99.90;;;;;;5122283;27;19971;-44
2023/07/29 13:45:33;;;;;;;;;;;23.40;99.90;;;;;;5119203;27;20350;-45
2023/07/29 13:47:59;;;;;;;;;;;23.00;99.90;;;;;;5124514;27;19919;-42
2023/07/29 13:50:24;;;;;;;;;;;22.90;99.90;;;;;;5116416;27;19912;-42
2023/07/29 13:52:50;;;;;;;;;;;22.70;99.90;;;;;;5119752;27;20327;-44
2023/07/29 13:55:15;;;;;;;;;;;22.40;99.90;;;;;;5125905;27;19918;-45
2023/07/29 13:57:41;;;;;;;;;;;22.30;99.90;;;;;;5129721;27;20293;-44
2023/07/29 14:00:07;;;;;;;;;;;22.20;99.90;;;;;;5119067;27;19959;-45
2023/07/29 14:02:33;;;;;;;;;;;22.10;99.90;;;;;;5127682;27;20381;-46
2023/07/29 14:04:58;;;;;;;;;;;22.00;99.90;;;;;;5136196;27;19911;-43
2023/07/29 14:07:24;;;;;;;;;;;22.10;99.90;;;;;;5120380;27;20000;-43
2023/07/29 14:09:49;;;;;;;;;;;22.20;99.90;;;;;;5124669;27;19916;-44